sensor_id;sensor_type;location;lat;lon;timestamp;P1;durP1;ratioP1;P2;durP2;ratioP2
50968;SDS011;36982;51.474;7.228;2024-02-04T00:01:15;10.07;;;8.00;;
50968;SDS011;36982;51.474;7.228;2024-02-04T00:03:40;10.63;;;7.57;;
50968;SDS011;36982;51.474;7.228;2024-02-04T00:06:06;9.83;;;7.33;;
50968;SDS011;36982;51.474;7.228;2024-02-04T00:11:54;10.83;;;6.57;;
50968;SDS011;36982;51.474;7.228;2024-02-04T00:14:19;8.33;;;6.70;;
50968;SDS011;36982;51.474;7.228;2024-02-04T00:19:42;11.03;;;6.63;;
50968;SDS011;36982;51.474;7.228;2024-02-04T00:22:08;7.23;;;5.83;;
50968;SDS011;36982;51.474;7.228;2024-02-04T00:24:34;8.07;;;6.37;;
50968;SDS011;36982;51.474;7.228;2024-02-04T00:26:59;8.33;;;5.30;;
50968;SDS011;36982;51.474;7.228;2024-02-04T00:29:25;9.37;;;6.50;;
50968;SDS011;36982;51.474;7.228;2024-02-04T00:31:50;7.73;;;5.90;;
50968;SDS011;36982;51.474;7.228;2024-02-04T00:34:16;8.97;;;6.50;;
50968;SDS011;36982;51.474;7.228;2024-02-04T00:36:42;7.77;;;5.80;;
50968;SDS011;36982;51.474;7.228;2024-02-04T00:39:07;8.03;;;5.57;;
50968;SDS011;36982;51.474;7.228;2024-02-04T00:41:33;7.80;;;4.80;;
50968;SDS011;36982;51.474;7.228;2024-02-04T00:44:00;6.07;;;4.57;;
50968;SDS011;36982;51.474;7.228;2024-02-04T00:46:25;7.00;;;4.30;;
50968;SDS011;36982;51.474;7.228;2024-02-04T00:48:51;7.40;;;3.87;;
50968;SDS011;36982;51.474;7.228;2024-02-04T00:51:17;5.23;;;3.17;;
50968;SDS011;36982;51.474;7.228;2024-02-04T00:53:43;4.17;;;3.33;;
50968;SDS011;36982;51.474;7.228;2024-02-04T00:56:09;3.80;;;2.90;;
50968;SDS011;36982;51.474;7.228;2024-02-04T00:58:36;4.10;;;2.90;;
50968;SDS011;36982;51.474;7.228;2024-02-04T01:01:01;2.93;;;2.57;;
50968;SDS011;36982;51.474;7.228;2024-02-04T01:03:28;3.50;;;2.60;;
50968;SDS011;36982;51.474;7.228;2024-02-04T01:05:54;2.70;;;2.43;;
50968;SDS011;36982;51.474;7.228;2024-02-04T01:08:20;3.50;;;2.90;;
50968;SDS011;36982;51.474;7.228;2024-02-04T01:10:46;3.23;;;2.03;;
50968;SDS011;36982;51.474;7.228;2024-02-04T01:13:12;2.20;;;1.80;;
50968;SDS011;36982;51.474;7.228;2024-02-04T01:15:38;2.80;;;2.00;;
50968;SDS011;36982;51.474;7.228;2024-02-04T01:18:03;2.10;;;1.53;;
50968;SDS011;36982;51.474;7.228;2024-02-04T01:20:29;1.50;;;1.30;;
50968;SDS011;36982;51.474;7.228;2024-02-04T01:22:55;1.80;;;1.40;;
50968;SDS011;36982;51.474;7.228;2024-02-04T01:25:38;2.03;;;1.70;;
50968;SDS011;36982;51.474;7.228;2024-02-04T01:28:03;2.63;;;1.80;;
50968;SDS011;36982;51.474;7.228;2024-02-04T01:30:29;2.00;;;1.60;;
50968;SDS011;36982;51.474;7.228;2024-02-04T01:32:56;1.80;;;1.47;;
50968;SDS011;36982;51.474;7.228;2024-02-04T01:35:22;1.80;;;1.40;;
50968;SDS011;36982;51.474;7.228;2024-02-04T01:37:47;2.73;;;1.60;;
50968;SDS011;36982;51.474;7.228;2024-02-04T01:40:15;1.87;;;1.37;;
50968;SDS011;36982;51.474;7.228;2024-02-04T01:42:41;3.43;;;1.30;;
50968;SDS011;36982;51.474;7.228;2024-02-04T01:45:09;1.67;;;1.30;;
50968;SDS011;36982;51.474;7.228;2024-02-04T01:47:34;1.57;;;1.20;;
50968;SDS011;36982;51.474;7.228;2024-02-04T01:50:00;1.80;;;1.40;;
50968;SDS011;36982;51.474;7.228;2024-02-04T01:52:27;1.80;;;1.40;;
50968;SDS011;36982;51.474;7.228;2024-02-04T01:55:04;2.30;;;1.60;;
50968;SDS011;36982;51.474;7.228;2024-02-04T01:57:34;2.20;;;1.70;;
50968;SDS011;36982;51.474;7.228;2024-02-04T02:00:00;3.03;;;2.00;;
50968;SDS011;36982;51.474;7.228;2024-02-04T02:02:25;2.50;;;1.93;;
50968;SDS011;36982;51.474;7.228;2024-02-04T02:04:51;2.53;;;1.80;;
50968;SDS011;36982;51.474;7.228;2024-02-04T02:07:17;2.70;;;2.10;;
50968;SDS011;36982;51.474;7.228;2024-02-04T02:09:46;3.50;;;1.90;;
50968;SDS011;36982;51.474;7.228;2024-02-04T02:12:13;3.20;;;2.30;;
50968;SDS011;36982;51.474;7.228;2024-02-04T02:14:44;3.43;;;2.30;;
50968;SDS011;36982;51.474;7.228;2024-02-04T02:17:14;3.17;;;2.63;;
50968;SDS011;36982;51.474;7.228;2024-02-04T02:24:58;4.90;;;3.40;;
50968;SDS011;36982;51.474;7.228;2024-02-04T02:27:25;5.47;;;3.93;;
50968;SDS011;36982;51.474;7.228;2024-02-04T02:29:51;5.23;;;4.00;;
50968;SDS011;36982;51.474;7.228;2024-02-04T02:35:13;5.63;;;4.63;;
50968;SDS011;36982;51.474;7.228;2024-02-04T02:38:25;5.33;;;4.23;;
50968;SDS011;36982;51.474;7.228;2024-02-04T02:46:14;6.10;;;4.87;;
50968;SDS011;36982;51.474;7.228;2024-02-04T02:48:40;7.30;;;4.93;;
50968;SDS011;36982;51.474;7.228;2024-02-04T02:51:06;7.00;;;5.03;;
50968;SDS011;36982;51.474;7.228;2024-02-04T02:53:32;6.50;;;5.23;;
50968;SDS011;36982;51.474;7.228;2024-02-04T02:55:57;6.33;;;4.57;;
50968;SDS011;36982;51.474;7.228;2024-02-04T02:58:23;6.20;;;5.00;;
50968;SDS011;36982;51.474;7.228;2024-02-04T03:00:48;9.17;;;6.03;;
50968;SDS011;36982;51.474;7.228;2024-02-04T03:06:36;11.27;;;7.27;;
50968;SDS011;36982;51.474;7.228;2024-02-04T03:09:02;11.30;;;7.77;;
50968;SDS011;36982;51.474;7.228;2024-02-04T03:14:21;11.40;;;8.63;;
50968;SDS011;36982;51.474;7.228;2024-02-04T03:16:47;12.60;;;9.03;;
50968;SDS011;36982;51.474;7.228;2024-02-04T03:19:12;13.20;;;9.40;;
50968;SDS011;36982;51.474;7.228;2024-02-04T03:21:43;14.10;;;9.37;;
50968;SDS011;36982;51.474;7.228;2024-02-04T03:24:09;13.57;;;9.73;;
50968;SDS011;36982;51.474;7.228;2024-02-04T03:26:34;16.83;;;10.87;;
50968;SDS011;36982;51.474;7.228;2024-02-04T03:29:00;15.53;;;10.80;;
50968;SDS011;36982;51.474;7.228;2024-02-04T03:31:25;15.20;;;10.90;;
50968;SDS011;36982;51.474;7.228;2024-02-04T03:34:02;14.70;;;10.07;;
50968;SDS011;36982;51.474;7.228;2024-02-04T03:36:28;16.17;;;10.93;;
50968;SDS011;36982;51.474;7.228;2024-02-04T03:38:55;16.53;;;10.73;;
50968;SDS011;36982;51.474;7.228;2024-02-04T03:41:21;16.20;;;10.73;;
50968;SDS011;36982;51.474;7.228;2024-02-04T03:43:46;16.10;;;11.07;;
50968;SDS011;36982;51.474;7.228;2024-02-04T03:46:15;15.87;;;11.40;;
50968;SDS011;36982;51.474;7.228;2024-02-04T03:48:42;14.63;;;10.50;;
50968;SDS011;36982;51.474;7.228;2024-02-04T03:51:08;16.20;;;11.63;;
50968;SDS011;36982;51.474;7.228;2024-02-04T03:53:39;16.47;;;10.93;;
50968;SDS011;36982;51.474;7.228;2024-02-04T03:56:20;14.53;;;10.30;;
50968;SDS011;36982;51.474;7.228;2024-02-04T03:58:45;14.03;;;9.63;;
50968;SDS011;36982;51.474;7.228;2024-02-04T04:01:11;14.13;;;9.60;;
50968;SDS011;36982;51.474;7.228;2024-02-04T04:03:41;13.63;;;9.20;;
50968;SDS011;36982;51.474;7.228;2024-02-04T04:06:13;12.97;;;8.77;;
50968;SDS011;36982;51.474;7.228;2024-02-04T04:08:38;13.13;;;9.27;;
50968;SDS011;36982;51.474;7.228;2024-02-04T04:11:04;14.57;;;8.93;;
50968;SDS011;36982;51.474;7.228;2024-02-04T04:13:30;14.40;;;10.00;;
50968;SDS011;36982;51.474;7.228;2024-02-04T04:15:59;13.07;;;9.13;;
50968;SDS011;36982;51.474;7.228;2024-02-04T04:18:25;13.07;;;9.53;;
50968;SDS011;36982;51.474;7.228;2024-02-04T04:20:51;12.90;;;8.37;;
50968;SDS011;36982;51.474;7.228;2024-02-04T04:23:16;12.67;;;8.80;;
50968;SDS011;36982;51.474;7.228;2024-02-04T04:25:42;15.73;;;9.77;;
50968;SDS011;36982;51.474;7.228;2024-02-04T04:28:07;11.47;;;8.10;;
50968;SDS011;36982;51.474;7.228;2024-02-04T04:33:53;12.30;;;8.43;;
50968;SDS011;36982;51.474;7.228;2024-02-04T04:36:19;12.47;;;8.33;;
50968;SDS011;36982;51.474;7.228;2024-02-04T04:38:45;13.03;;;8.63;;
50968;SDS011;36982;51.474;7.228;2024-02-04T04:41:10;11.90;;;8.07;;
50968;SDS011;36982;51.474;7.228;2024-02-04T04:43:36;13.97;;;10.23;;
50968;SDS011;36982;51.474;7.228;2024-02-04T04:46:03;17.23;;;12.00;;
50968;SDS011;36982;51.474;7.228;2024-02-04T04:48:29;21.57;;;15.20;;
50968;SDS011;36982;51.474;7.228;2024-02-04T04:51:04;23.83;;;15.90;;
50968;SDS011;36982;51.474;7.228;2024-02-04T04:53:29;28.23;;;16.37;;
50968;SDS011;36982;51.474;7.228;2024-02-04T04:55:55;21.50;;;15.13;;
50968;SDS011;36982;51.474;7.228;2024-02-04T04:58:21;21.27;;;14.77;;
50968;SDS011;36982;51.474;7.228;2024-02-04T05:00:47;18.40;;;12.93;;
50968;SDS011;36982;51.474;7.228;2024-02-04T05:03:12;18.47;;;11.77;;
50968;SDS011;36982;51.474;7.228;2024-02-04T05:05:38;15.13;;;10.43;;
50968;SDS011;36982;51.474;7.228;2024-02-04T05:08:03;14.70;;;10.23;;
50968;SDS011;36982;51.474;7.228;2024-02-04T05:10:29;15.67;;;10.50;;
50968;SDS011;36982;51.474;7.228;2024-02-04T05:15:43;13.33;;;9.80;;
50968;SDS011;36982;51.474;7.228;2024-02-04T05:18:09;15.20;;;9.30;;
50968;SDS011;36982;51.474;7.228;2024-02-04T05:20:34;14.77;;;9.30;;
50968;SDS011;36982;51.474;7.228;2024-02-04T05:23:07;13.60;;;9.30;;
50968;SDS011;36982;51.474;7.228;2024-02-04T05:25:33;14.80;;;9.63;;
50968;SDS011;36982;51.474;7.228;2024-02-04T05:27:59;15.07;;;9.90;;
50968;SDS011;36982;51.474;7.228;2024-02-04T05:30:24;13.80;;;8.70;;
50968;SDS011;36982;51.474;7.228;2024-02-04T05:32:50;14.33;;;9.43;;
50968;SDS011;36982;51.474;7.228;2024-02-04T05:35:15;15.30;;;9.30;;
50968;SDS011;36982;51.474;7.228;2024-02-04T05:37:41;14.90;;;8.70;;
50968;SDS011;36982;51.474;7.228;2024-02-04T05:40:07;11.57;;;8.80;;
50968;SDS011;36982;51.474;7.228;2024-02-04T05:42:33;14.73;;;9.30;;
50968;SDS011;36982;51.474;7.228;2024-02-04T05:45:00;15.50;;;9.83;;
50968;SDS011;36982;51.474;7.228;2024-02-04T05:47:25;13.47;;;9.17;;
50968;SDS011;36982;51.474;7.228;2024-02-04T05:49:51;12.70;;;9.23;;
50968;SDS011;36982;51.474;7.228;2024-02-04T05:52:16;12.23;;;8.60;;
50968;SDS011;36982;51.474;7.228;2024-02-04T05:54:42;12.07;;;8.33;;
50968;SDS011;36982;51.474;7.228;2024-02-04T05:57:08;14.40;;;9.20;;
50968;SDS011;36982;51.474;7.228;2024-02-04T05:59:33;14.40;;;8.33;;
50968;SDS011;36982;51.474;7.228;2024-02-04T06:01:59;11.17;;;8.03;;
50968;SDS011;36982;51.474;7.228;2024-02-04T06:04:25;13.97;;;8.63;;
50968;SDS011;36982;51.474;7.228;2024-02-04T06:06:51;14.57;;;8.43;;
50968;SDS011;36982;51.474;7.228;2024-02-04T06:09:16;11.53;;;8.60;;
50968;SDS011;36982;51.474;7.228;2024-02-04T06:11:45;15.07;;;8.80;;
50968;SDS011;36982;51.474;7.228;2024-02-04T06:14:11;13.33;;;8.73;;
50968;SDS011;36982;51.474;7.228;2024-02-04T06:16:37;11.37;;;8.20;;
50968;SDS011;36982;51.474;7.228;2024-02-04T06:19:03;13.83;;;8.90;;
50968;SDS011;36982;51.474;7.228;2024-02-04T06:21:28;14.47;;;9.33;;
50968;SDS011;36982;51.474;7.228;2024-02-04T06:23:54;12.43;;;8.80;;
50968;SDS011;36982;51.474;7.228;2024-02-04T06:26:19;17.30;;;9.87;;
50968;SDS011;36982;51.474;7.228;2024-02-04T06:31:53;16.63;;;11.13;;
50968;SDS011;36982;51.474;7.228;2024-02-04T06:34:19;18.90;;;12.53;;
50968;SDS011;36982;51.474;7.228;2024-02-04T06:39:57;19.13;;;13.20;;
50968;SDS011;36982;51.474;7.228;2024-02-04T06:42:22;18.30;;;13.77;;
50968;SDS011;36982;51.474;7.228;2024-02-04T06:44:48;20.50;;;13.57;;
50968;SDS011;36982;51.474;7.228;2024-02-04T06:50:33;21.57;;;12.53;;
50968;SDS011;36982;51.474;7.228;2024-02-04T06:52:59;18.67;;;12.70;;
50968;SDS011;36982;51.474;7.228;2024-02-04T06:55:24;17.40;;;11.93;;
50968;SDS011;36982;51.474;7.228;2024-02-04T06:57:53;19.53;;;12.57;;
50968;SDS011;36982;51.474;7.228;2024-02-04T07:00:19;19.87;;;11.93;;
50968;SDS011;36982;51.474;7.228;2024-02-04T07:02:46;18.17;;;11.77;;
50968;SDS011;36982;51.474;7.228;2024-02-04T07:05:12;19.00;;;11.80;;
50968;SDS011;36982;51.474;7.228;2024-02-04T07:07:37;16.07;;;10.43;;
50968;SDS011;36982;51.474;7.228;2024-02-04T07:10:03;16.47;;;10.93;;
50968;SDS011;36982;51.474;7.228;2024-02-04T07:12:29;13.93;;;9.37;;
50968;SDS011;36982;51.474;7.228;2024-02-04T07:14:55;16.03;;;10.07;;
50968;SDS011;36982;51.474;7.228;2024-02-04T07:17:20;16.27;;;10.40;;
50968;SDS011;36982;51.474;7.228;2024-02-04T07:19:46;15.83;;;9.57;;
50968;SDS011;36982;51.474;7.228;2024-02-04T07:22:11;15.00;;;9.90;;
50968;SDS011;36982;51.474;7.228;2024-02-04T07:24:37;16.87;;;10.13;;
50968;SDS011;36982;51.474;7.228;2024-02-04T07:27:02;17.17;;;11.17;;
50968;SDS011;36982;51.474;7.228;2024-02-04T07:29:28;16.07;;;10.63;;
50968;SDS011;36982;51.474;7.228;2024-02-04T07:31:54;17.57;;;11.63;;
50968;SDS011;36982;51.474;7.228;2024-02-04T07:34:20;18.07;;;9.67;;
50968;SDS011;36982;51.474;7.228;2024-02-04T07:36:45;16.47;;;10.43;;
50968;SDS011;36982;51.474;7.228;2024-02-04T07:42:10;17.73;;;9.93;;
50968;SDS011;36982;51.474;7.228;2024-02-04T07:44:35;14.57;;;10.17;;
50968;SDS011;36982;51.474;7.228;2024-02-04T07:47:01;15.57;;;10.73;;
50968;SDS011;36982;51.474;7.228;2024-02-04T07:49:26;14.73;;;9.03;;
50968;SDS011;36982;51.474;7.228;2024-02-04T07:51:52;15.03;;;9.37;;
50968;SDS011;36982;51.474;7.228;2024-02-04T07:54:17;14.30;;;8.83;;
50968;SDS011;36982;51.474;7.228;2024-02-04T07:56:43;13.60;;;9.07;;
50968;SDS011;36982;51.474;7.228;2024-02-04T07:59:08;15.93;;;8.90;;
50968;SDS011;36982;51.474;7.228;2024-02-04T08:01:34;11.23;;;7.67;;
50968;SDS011;36982;51.474;7.228;2024-02-04T08:03:59;13.57;;;7.37;;
50968;SDS011;36982;51.474;7.228;2024-02-04T08:06:25;11.27;;;6.97;;
50968;SDS011;36982;51.474;7.228;2024-02-04T08:08:57;9.40;;;6.30;;
50968;SDS011;36982;51.474;7.228;2024-02-04T08:11:22;10.97;;;6.13;;
50968;SDS011;36982;51.474;7.228;2024-02-04T08:13:48;7.53;;;5.47;;
50968;SDS011;36982;51.474;7.228;2024-02-04T08:16:13;8.57;;;5.67;;
50968;SDS011;36982;51.474;7.228;2024-02-04T08:18:48;6.87;;;5.33;;
50968;SDS011;36982;51.474;7.228;2024-02-04T08:21:14;9.67;;;6.00;;
50968;SDS011;36982;51.474;7.228;2024-02-04T08:23:39;9.83;;;5.47;;
50968;SDS011;36982;51.474;7.228;2024-02-04T08:28:36;6.70;;;4.90;;
50968;SDS011;36982;51.474;7.228;2024-02-04T08:31:01;5.93;;;4.10;;
50968;SDS011;36982;51.474;7.228;2024-02-04T08:33:27;4.23;;;3.60;;
50968;SDS011;36982;51.474;7.228;2024-02-04T08:36:01;5.60;;;4.00;;
50968;SDS011;36982;51.474;7.228;2024-02-04T08:38:26;5.20;;;3.53;;
50968;SDS011;36982;51.474;7.228;2024-02-04T08:40:52;6.30;;;4.37;;
50968;SDS011;36982;51.474;7.228;2024-02-04T08:43:17;7.63;;;4.10;;
50968;SDS011;36982;51.474;7.228;2024-02-04T08:45:43;5.43;;;3.77;;
50968;SDS011;36982;51.474;7.228;2024-02-04T08:48:09;5.00;;;3.63;;
50968;SDS011;36982;51.474;7.228;2024-02-04T08:50:34;3.80;;;3.37;;
50968;SDS011;36982;51.474;7.228;2024-02-04T08:53:04;4.17;;;2.77;;
50968;SDS011;36982;51.474;7.228;2024-02-04T08:55:29;3.53;;;3.10;;
50968;SDS011;36982;51.474;7.228;2024-02-04T08:57:55;4.37;;;2.83;;
50968;SDS011;36982;51.474;7.228;2024-02-04T09:00:20;4.87;;;2.57;;
50968;SDS011;36982;51.474;7.228;2024-02-04T09:05:34;5.20;;;2.80;;
50968;SDS011;36982;51.474;7.228;2024-02-04T09:07:59;3.60;;;2.47;;
50968;SDS011;36982;51.474;7.228;2024-02-04T09:10:26;4.27;;;3.10;;
50968;SDS011;36982;51.474;7.228;2024-02-04T09:12:58;4.87;;;3.07;;
50968;SDS011;36982;51.474;7.228;2024-02-04T09:15:23;5.03;;;3.13;;
50968;SDS011;36982;51.474;7.228;2024-02-04T09:17:49;4.53;;;3.03;;
50968;SDS011;36982;51.474;7.228;2024-02-04T09:20:14;3.67;;;2.93;;
50968;SDS011;36982;51.474;7.228;2024-02-04T09:22:54;5.40;;;3.23;;
50968;SDS011;36982;51.474;7.228;2024-02-04T09:25:19;3.77;;;3.00;;
50968;SDS011;36982;51.474;7.228;2024-02-04T09:27:45;4.40;;;3.00;;
50968;SDS011;36982;51.474;7.228;2024-02-04T09:30:10;4.37;;;3.00;;
50968;SDS011;36982;51.474;7.228;2024-02-04T09:32:54;5.50;;;3.03;;
50968;SDS011;36982;51.474;7.228;2024-02-04T09:35:19;3.57;;;2.50;;
50968;SDS011;36982;51.474;7.228;2024-02-04T09:37:45;6.13;;;2.93;;
50968;SDS011;36982;51.474;7.228;2024-02-04T09:40:11;4.90;;;3.30;;
50968;SDS011;36982;51.474;7.228;2024-02-04T09:42:49;4.73;;;4.00;;
50968;SDS011;36982;51.474;7.228;2024-02-04T09:45:17;6.10;;;4.20;;
50968;SDS011;36982;51.474;7.228;2024-02-04T09:47:42;8.40;;;5.67;;
50968;SDS011;36982;51.474;7.228;2024-02-04T09:50:10;8.73;;;6.57;;
50968;SDS011;36982;51.474;7.228;2024-02-04T09:52:39;8.57;;;5.67;;
50968;SDS011;36982;51.474;7.228;2024-02-04T09:55:06;9.23;;;5.73;;
50968;SDS011;36982;51.474;7.228;2024-02-04T09:57:34;6.97;;;5.23;;
50968;SDS011;36982;51.474;7.228;2024-02-04T10:00:03;8.23;;;5.53;;
50968;SDS011;36982;51.474;7.228;2024-02-04T10:02:35;8.40;;;5.23;;
50968;SDS011;36982;51.474;7.228;2024-02-04T10:05:01;10.23;;;5.50;;
50968;SDS011;36982;51.474;7.228;2024-02-04T10:07:28;6.40;;;4.73;;
50968;SDS011;36982;51.474;7.228;2024-02-04T10:09:54;8.57;;;4.93;;
50968;SDS011;36982;51.474;7.228;2024-02-04T10:12:20;7.07;;;4.80;;
50968;SDS011;36982;51.474;7.228;2024-02-04T10:14:46;6.90;;;4.43;;
50968;SDS011;36982;51.474;7.228;2024-02-04T10:17:13;5.20;;;4.30;;
50968;SDS011;36982;51.474;7.228;2024-02-04T10:19:40;6.77;;;4.30;;
50968;SDS011;36982;51.474;7.228;2024-02-04T10:22:06;6.73;;;4.47;;
50968;SDS011;36982;51.474;7.228;2024-02-04T10:24:31;5.57;;;4.27;;
50968;SDS011;36982;51.474;7.228;2024-02-04T10:26:57;6.90;;;4.77;;
50968;SDS011;36982;51.474;7.228;2024-02-04T10:29:23;6.73;;;4.33;;
50968;SDS011;36982;51.474;7.228;2024-02-04T10:34:52;4.60;;;3.70;;
50968;SDS011;36982;51.474;7.228;2024-02-04T10:37:18;6.20;;;4.50;;
50968;SDS011;36982;51.474;7.228;2024-02-04T10:42:30;4.43;;;3.60;;
50968;SDS011;36982;51.474;7.228;2024-02-04T10:44:57;4.90;;;4.40;;
50968;SDS011;36982;51.474;7.228;2024-02-04T10:47:24;7.57;;;4.90;;
50968;SDS011;36982;51.474;7.228;2024-02-04T10:49:55;5.50;;;4.50;;
50968;SDS011;36982;51.474;7.228;2024-02-04T10:52:24;6.73;;;3.77;;
50968;SDS011;36982;51.474;7.228;2024-02-04T10:54:52;7.27;;;4.63;;
50968;SDS011;36982;51.474;7.228;2024-02-04T10:57:21;4.57;;;3.90;;
50968;SDS011;36982;51.474;7.228;2024-02-04T10:59:56;5.57;;;4.20;;
50968;SDS011;36982;51.474;7.228;2024-02-04T11:02:23;5.00;;;3.67;;
50968;SDS011;36982;51.474;7.228;2024-02-04T11:04:49;5.37;;;3.90;;
50968;SDS011;36982;51.474;7.228;2024-02-04T11:07:15;5.20;;;3.70;;
50968;SDS011;36982;51.474;7.228;2024-02-04T11:09:44;5.57;;;3.27;;
50968;SDS011;36982;51.474;7.228;2024-02-04T11:12:14;5.97;;;3.47;;
50968;SDS011;36982;51.474;7.228;2024-02-04T11:14:41;5.27;;;3.20;;
50968;SDS011;36982;51.474;7.228;2024-02-04T11:25:45;2.63;;;2.37;;
50968;SDS011;36982;51.474;7.228;2024-02-04T11:28:13;4.53;;;2.57;;
50968;SDS011;36982;51.474;7.228;2024-02-04T11:30:42;3.87;;;2.63;;
50968;SDS011;36982;51.474;7.228;2024-02-04T11:33:10;4.77;;;3.20;;
50968;SDS011;36982;51.474;7.228;2024-02-04T11:38:35;4.07;;;3.20;;
50968;SDS011;36982;51.474;7.228;2024-02-04T11:41:02;3.70;;;3.07;;
50968;SDS011;36982;51.474;7.228;2024-02-04T11:43:28;4.07;;;3.00;;
50968;SDS011;36982;51.474;7.228;2024-02-04T11:45:57;3.90;;;3.03;;
50968;SDS011;36982;51.474;7.228;2024-02-04T11:48:28;4.73;;;3.10;;
50968;SDS011;36982;51.474;7.228;2024-02-04T11:50:58;5.50;;;2.30;;
50968;SDS011;36982;51.474;7.228;2024-02-04T11:53:27;3.30;;;1.87;;
50968;SDS011;36982;51.474;7.228;2024-02-04T11:55:57;2.33;;;1.60;;
50968;SDS011;36982;51.474;7.228;2024-02-04T11:58:25;1.30;;;1.20;;
50968;SDS011;36982;51.474;7.228;2024-02-04T12:00:52;1.73;;;1.20;;
50968;SDS011;36982;51.474;7.228;2024-02-04T12:03:27;2.17;;;1.60;;
50968;SDS011;36982;51.474;7.228;2024-02-04T12:08:43;1.37;;;1.27;;
50968;SDS011;36982;51.474;7.228;2024-02-04T12:11:09;1.60;;;1.50;;
50968;SDS011;36982;51.474;7.228;2024-02-04T12:13:35;2.27;;;1.73;;
50968;SDS011;36982;51.474;7.228;2024-02-04T12:16:04;2.80;;;1.70;;
50968;SDS011;36982;51.474;7.228;2024-02-04T12:18:33;3.80;;;2.73;;
50968;SDS011;36982;51.474;7.228;2024-02-04T12:20:59;4.63;;;3.63;;
50968;SDS011;36982;51.474;7.228;2024-02-04T12:23:24;4.00;;;3.53;;
50968;SDS011;36982;51.474;7.228;2024-02-04T12:25:51;5.30;;;4.07;;
50968;SDS011;36982;51.474;7.228;2024-02-04T12:28:18;5.77;;;4.20;;
50968;SDS011;36982;51.474;7.228;2024-02-04T12:30:52;5.97;;;4.67;;
50968;SDS011;36982;51.474;7.228;2024-02-04T12:33:19;6.60;;;4.83;;
50968;SDS011;36982;51.474;7.228;2024-02-04T12:35:48;7.57;;;5.07;;
50968;SDS011;36982;51.474;7.228;2024-02-04T12:38:17;7.97;;;5.70;;
50968;SDS011;36982;51.474;7.228;2024-02-04T12:40:43;8.03;;;6.20;;
50968;SDS011;36982;51.474;7.228;2024-02-04T12:43:11;6.23;;;5.60;;
50968;SDS011;36982;51.474;7.228;2024-02-04T12:45:37;8.83;;;5.87;;
50968;SDS011;36982;51.474;7.228;2024-02-04T12:48:03;7.73;;;6.50;;
50968;SDS011;36982;51.474;7.228;2024-02-04T12:50:30;8.10;;;6.47;;
50968;SDS011;36982;51.474;7.228;2024-02-04T12:53:05;9.27;;;7.40;;
50968;SDS011;36982;51.474;7.228;2024-02-04T12:55:33;9.07;;;6.83;;
50968;SDS011;36982;51.474;7.228;2024-02-04T13:01:06;7.77;;;6.50;;
50968;SDS011;36982;51.474;7.228;2024-02-04T13:03:32;8.97;;;6.90;;
50968;SDS011;36982;51.474;7.228;2024-02-04T13:05:58;9.67;;;7.33;;
50968;SDS011;36982;51.474;7.228;2024-02-04T13:08:24;9.30;;;7.07;;
50968;SDS011;36982;51.474;7.228;2024-02-04T13:10:55;10.63;;;8.30;;
50968;SDS011;36982;51.474;7.228;2024-02-04T13:13:22;9.53;;;7.23;;
50968;SDS011;36982;51.474;7.228;2024-02-04T13:15:51;11.17;;;7.30;;
50968;SDS011;36982;51.474;7.228;2024-02-04T13:18:17;9.23;;;6.73;;
50968;SDS011;36982;51.474;7.228;2024-02-04T13:20:43;9.40;;;7.37;;
50968;SDS011;36982;51.474;7.228;2024-02-04T13:23:10;8.97;;;6.53;;
50968;SDS011;36982;51.474;7.228;2024-02-04T13:25:38;9.07;;;6.70;;
50968;SDS011;36982;51.474;7.228;2024-02-04T13:28:04;9.93;;;6.67;;
50968;SDS011;36982;51.474;7.228;2024-02-04T13:30:30;9.00;;;7.23;;
50968;SDS011;36982;51.474;7.228;2024-02-04T13:32:56;7.77;;;6.37;;
50968;SDS011;36982;51.474;7.228;2024-02-04T13:35:26;7.10;;;6.00;;
50968;SDS011;36982;51.474;7.228;2024-02-04T13:37:52;8.27;;;6.03;;
50968;SDS011;36982;51.474;7.228;2024-02-04T13:40:19;8.20;;;4.93;;
50968;SDS011;36982;51.474;7.228;2024-02-04T13:42:46;6.20;;;5.37;;
50968;SDS011;36982;51.474;7.228;2024-02-04T13:45:11;7.40;;;5.50;;
50968;SDS011;36982;51.474;7.228;2024-02-04T13:47:41;7.17;;;4.50;;
50968;SDS011;36982;51.474;7.228;2024-02-04T13:50:07;6.37;;;4.70;;
50968;SDS011;36982;51.474;7.228;2024-02-04T13:52:34;6.63;;;4.70;;
50968;SDS011;36982;51.474;7.228;2024-02-04T13:55:00;4.90;;;3.97;;
50968;SDS011;36982;51.474;7.228;2024-02-04T13:57:25;5.43;;;4.40;;
50968;SDS011;36982;51.474;7.228;2024-02-04T13:59:51;3.90;;;3.50;;
50968;SDS011;36982;51.474;7.228;2024-02-04T14:02:24;10.00;;;4.23;;
50968;SDS011;36982;51.474;7.228;2024-02-04T14:04:51;6.07;;;4.40;;
50968;SDS011;36982;51.474;7.228;2024-02-04T14:07:17;5.27;;;4.50;;
50968;SDS011;36982;51.474;7.228;2024-02-04T14:09:43;5.80;;;3.60;;
50968;SDS011;36982;51.474;7.228;2024-02-04T14:12:09;6.13;;;4.40;;
50968;SDS011;36982;51.474;7.228;2024-02-04T14:14:36;4.63;;;3.97;;
50968;SDS011;36982;51.474;7.228;2024-02-04T14:17:02;5.37;;;3.97;;
50968;SDS011;36982;51.474;7.228;2024-02-04T14:19:28;6.53;;;4.23;;
50968;SDS011;36982;51.474;7.228;2024-02-04T14:21:54;5.03;;;4.17;;
50968;SDS011;36982;51.474;7.228;2024-02-04T14:24:19;5.33;;;4.20;;
50968;SDS011;36982;51.474;7.228;2024-02-04T14:26:45;4.73;;;3.80;;
50968;SDS011;36982;51.474;7.228;2024-02-04T14:29:10;5.13;;;4.17;;
50968;SDS011;36982;51.474;7.228;2024-02-04T14:31:36;4.73;;;3.77;;
50968;SDS011;36982;51.474;7.228;2024-02-04T14:34:02;5.10;;;3.57;;
50968;SDS011;36982;51.474;7.228;2024-02-04T14:36:27;6.43;;;3.63;;
50968;SDS011;36982;51.474;7.228;2024-02-04T14:38:53;6.90;;;4.27;;
50968;SDS011;36982;51.474;7.228;2024-02-04T14:41:18;5.10;;;4.00;;
50968;SDS011;36982;51.474;7.228;2024-02-04T14:43:49;4.33;;;3.73;;
50968;SDS011;36982;51.474;7.228;2024-02-04T14:46:15;5.07;;;3.70;;
50968;SDS011;36982;51.474;7.228;2024-02-04T14:48:40;4.80;;;3.90;;
50968;SDS011;36982;51.474;7.228;2024-02-04T14:51:07;4.50;;;3.97;;
50968;SDS011;36982;51.474;7.228;2024-02-04T14:53:32;5.30;;;4.23;;
50968;SDS011;36982;51.474;7.228;2024-02-04T14:55:58;4.10;;;3.43;;
50968;SDS011;36982;51.474;7.228;2024-02-04T15:00:54;9.67;;;6.33;;
50968;SDS011;36982;51.474;7.228;2024-02-04T15:03:20;9.03;;;6.77;;
50968;SDS011;36982;51.474;7.228;2024-02-04T15:05:49;9.50;;;6.63;;
50968;SDS011;36982;51.474;7.228;2024-02-04T15:08:15;11.67;;;7.10;;
50968;SDS011;36982;51.474;7.228;2024-02-04T15:10:41;9.83;;;6.83;;
50968;SDS011;36982;51.474;7.228;2024-02-04T15:13:07;8.43;;;6.40;;
50968;SDS011;36982;51.474;7.228;2024-02-04T15:18:13;11.10;;;7.00;;
50968;SDS011;36982;51.474;7.228;2024-02-04T15:20:39;10.13;;;6.93;;
50968;SDS011;36982;51.474;7.228;2024-02-04T15:23:19;10.17;;;7.27;;
50968;SDS011;36982;51.474;7.228;2024-02-04T15:25:45;10.27;;;6.23;;
50968;SDS011;36982;51.474;7.228;2024-02-04T15:28:13;8.80;;;6.33;;
50968;SDS011;36982;51.474;7.228;2024-02-04T15:30:39;10.90;;;6.00;;
50968;SDS011;36982;51.474;7.228;2024-02-04T15:33:05;9.87;;;6.03;;
50968;SDS011;36982;51.474;7.228;2024-02-04T15:35:31;8.10;;;5.70;;
50968;SDS011;36982;51.474;7.228;2024-02-04T15:40:29;9.83;;;6.20;;
50968;SDS011;36982;51.474;7.228;2024-02-04T15:42:54;13.33;;;7.27;;
50968;SDS011;36982;51.474;7.228;2024-02-04T15:45:22;10.40;;;7.33;;
50968;SDS011;36982;51.474;7.228;2024-02-04T15:47:51;11.60;;;7.80;;
50968;SDS011;36982;51.474;7.228;2024-02-04T15:50:18;12.00;;;8.40;;
50968;SDS011;36982;51.474;7.228;2024-02-04T15:52:45;13.93;;;8.43;;
50968;SDS011;36982;51.474;7.228;2024-02-04T15:55:15;13.73;;;8.50;;
50968;SDS011;36982;51.474;7.228;2024-02-04T15:57:42;11.53;;;7.90;;
50968;SDS011;36982;51.474;7.228;2024-02-04T16:00:12;8.67;;;7.33;;